createdAt,value
2023-03-08T00:01:52.531Z,97445.94
2023-03-08T00:04:20.764Z,97457.81
2023-03-08T00:06:49.961Z,97435.41
2023-03-08T00:09:18.393Z,97459.97
2023-03-08T00:11:46.942Z,97445.94
2023-03-08T00:14:15.840Z,97458.09
2023-03-08T00:16:44.284Z,97441.91
2023-03-08T00:19:12.474Z,97459.75
2023-03-08T00:21:41.481Z,97456.13
2023-03-08T00:24:09.606Z,97454.19
2023-03-08T00:26:38.066Z,97468.34
2023-03-08T00:29:06.884Z,97462.44
2023-03-08T00:31:35.298Z,97469.66
2023-03-08T00:34:03.390Z,97427.72
2023-03-08T00:36:31.649Z,97484.22
2023-03-08T00:39:00.013Z,97486.84
2023-03-08T00:41:28.561Z,97471.22
2023-03-08T00:43:57.018Z,97468.59
2023-03-08T00:46:26.524Z,97477.47
2023-03-08T00:48:54.644Z,97479.22
2023-03-08T00:51:23.065Z,97469.47
2023-03-08T00:53:50.961Z,97470.81
2023-03-08T00:56:19.208Z,97435.69
2023-03-08T00:58:47.438Z,97434.06
2023-03-08T01:01:19.046Z,97467.75
2023-03-08T01:03:50.172Z,97450.91
2023-03-08T01:06:19.278Z,97452.97
2023-03-08T01:08:47.366Z,97451.66
2023-03-08T01:11:20.409Z,97446.25
2023-03-08T01:13:49.717Z,97409.13
2023-03-08T01:16:30.961Z,97461.41
2023-03-08T01:19:02.099Z,97453.84
2023-03-08T01:21:32.225Z,97424.34
2023-03-08T01:24:00.582Z,97447.59
2023-03-08T01:26:31.350Z,97446.78
2023-03-08T01:28:59.766Z,97447.25
2023-03-08T01:31:30.767Z,97444.78
2023-03-08T01:34:01.402Z,97448.94
2023-03-08T01:36:30.062Z,97446.13
2023-03-08T01:39:01.667Z,97447.59
2023-03-08T01:41:31.293Z,97439.16
2023-03-08T01:43:59.431Z,97451.88
2023-03-08T01:46:28.722Z,97447.22
2023-03-08T01:49:34.379Z,97435.75
2023-03-08T01:52:14.561Z,97396.66
2023-03-08T01:54:53.198Z,97437.91
2023-03-08T01:57:31.814Z,97397.97
2023-03-08T02:00:10.786Z,97437.41
2023-03-08T02:03:08.901Z,97427.06
2023-03-08T02:05:42.177Z,97427.56
2023-03-08T02:08:16.830Z,97430.72
2023-03-08T02:10:46.670Z,97423.47
2023-03-08T02:13:16.738Z,97427.56
2023-03-08T02:15:46.089Z,97433.19
2023-03-08T02:18:14.590Z,97346.22
2023-03-08T02:20:42.948Z,97450.88
2023-03-08T02:23:24.068Z,97434.94
2023-03-08T02:26:05.152Z,97381.47
2023-03-08T02:28:34.554Z,97435.94
2023-03-08T02:31:02.667Z,97425.06
2023-03-08T02:33:32.464Z,97439.88
2023-03-08T02:36:04.871Z,97430.88
2023-03-08T02:38:32.848Z,97422.97
2023-03-08T02:41:01.270Z,97424.59
2023-03-08T02:43:29.350Z,97424.59
2023-03-08T02:45:57.380Z,97422.78
2023-03-08T02:48:25.421Z,97425.09
2023-03-08T02:50:53.623Z,97416.69
2023-03-08T02:53:21.602Z,97415.09
2023-03-08T02:55:49.802Z,97395.41
2023-03-08T02:58:18.844Z,97416.88
2023-03-08T03:00:47.275Z,97420.19
2023-03-08T03:03:17.725Z,97391.47
2023-03-08T03:05:46.068Z,97416.69
2023-03-08T03:08:19.921Z,97412.94
2023-03-08T03:10:47.948Z,97402.97
2023-03-08T03:13:15.890Z,97424.75
2023-03-08T03:15:44.805Z,97422.47
2023-03-08T03:18:13.195Z,97412.63
2023-03-08T03:20:41.197Z,97402.97
2023-03-08T03:23:10.481Z,97413.53
2023-03-08T03:25:45.396Z,97391.09
2023-03-08T03:28:17.159Z,97422.47
2023-03-08T03:30:46.167Z,97427.06
2023-03-08T03:33:15.541Z,97397.03
2023-03-08T03:35:43.833Z,97436.97
2023-03-08T03:38:12.010Z,97444.19
2023-03-08T03:40:41.617Z,97439.88
2023-03-08T03:43:11.257Z,97440.56
2023-03-08T03:45:39.846Z,97443.25
2023-03-08T03:48:10.592Z,97435.66
2023-03-08T03:50:39.568Z,97400.00
2023-03-08T03:53:12.946Z,97401.63
2023-03-08T03:55:41.269Z,97455.75
2023-03-08T03:58:09.200Z,97457.69
2023-03-08T04:00:37.712Z,97451.75
2023-03-08T04:03:16.218Z,97458.97
2023-03-08T04:05:44.496Z,97453.53
2023-03-08T04:08:12.441Z,97408.81
2023-03-08T04:10:43.423Z,97467.41
2023-03-08T04:13:12.695Z,97416.72
2023-03-08T04:15:41.907Z,97460.66
2023-03-08T04:18:13.161Z,97457.22
2023-03-08T04:20:45.820Z,97410.78
2023-03-08T04:23:15.002Z,97461.53
2023-03-08T04:25:48.099Z,97455.94
2023-03-08T04:28:18.136Z,97475.56
2023-03-08T04:30:46.793Z,97468.78
2023-03-08T04:33:17.421Z,97457.69
2023-03-08T04:35:49.890Z,97461.53
2023-03-08T04:38:21.647Z,97472.34
2023-03-08T04:41:02.626Z,97484.34
2023-03-08T04:43:44.466Z,97470.59
2023-03-08T04:46:14.023Z,97480.81
2023-03-08T04:48:42.107Z,97482.78
2023-03-08T04:51:13.631Z,97475.03
2023-03-08T04:53:44.686Z,97479.47
2023-03-08T04:56:15.404Z,97491.03
2023-03-08T04:58:45.261Z,97487.25
2023-03-08T05:01:23.507Z,97487.91
2023-03-08T05:03:54.574Z,97493.69
2023-03-08T05:06:28.803Z,97491.91
2023-03-08T05:08:58.589Z,97499.66
2023-03-08T05:11:29.901Z,97497.84
2023-03-08T05:14:01.155Z,97465.44
2023-03-08T05:16:30.459Z,97439.50
2023-03-08T05:18:58.706Z,97489.03
2023-03-08T05:21:32.445Z,97533.03
2023-03-08T05:24:02.855Z,97552.97
2023-03-08T05:26:35.452Z,97505.56
2023-03-08T05:29:06.892Z,97567.94
2023-03-08T05:31:38.111Z,97520.56
2023-03-08T05:34:11.396Z,97576.13
2023-03-08T05:36:43.026Z,97542.91
2023-03-08T05:39:11.925Z,97557.41
2023-03-08T05:41:51.528Z,97593.16
2023-03-08T05:44:27.132Z,97609.88
2023-03-08T05:46:56.778Z,97611.78
2023-03-08T05:49:25.417Z,97620.34
2023-03-08T05:51:55.053Z,97597.72
2023-03-08T05:54:25.440Z,97642.16
2023-03-08T05:56:59.450Z,97644.59
2023-03-08T05:59:28.445Z,97660.28
2023-03-08T06:02:01.681Z,97616.88
2023-03-08T06:04:41.347Z,97674.28
2023-03-08T06:07:11.077Z,97671.44
2023-03-08T06:09:44.648Z,97690.47
2023-03-08T06:12:16.224Z,97666.09
2023-03-08T06:14:47.112Z,97711.47
2023-03-08T06:17:17.316Z,97660.47
2023-03-08T06:19:51.728Z,97706.88
2023-03-08T06:22:20.502Z,97713.63
2023-03-08T06:24:50.114Z,97725.41
2023-03-08T06:27:29.232Z,97730.53
2023-03-08T06:30:00.707Z,97730.44
2023-03-08T06:32:32.126Z,97703.91
2023-03-08T06:35:01.708Z,97698.81
2023-03-08T06:37:35.888Z,97717.78
2023-03-08T06:40:09.345Z,97740.63
2023-03-08T06:42:41.428Z,97732.34
2023-03-08T06:45:14.801Z,97720.38
2023-03-08T06:47:43.157Z,97736.78
2023-03-08T06:50:12.892Z,97749.06
2023-03-08T06:52:44.326Z,97734.66
2023-03-08T06:55:13.045Z,97758.16
2023-03-08T06:57:41.972Z,97765.94
2023-03-08T07:00:12.491Z,97766.97
2023-03-08T07:02:40.750Z,97752.84
2023-03-08T07:05:10.495Z,97772.19
2023-03-08T07:07:39.938Z,97766.13
2023-03-08T07:10:11.146Z,97769.06
2023-03-08T07:12:40.467Z,97735.50
2023-03-08T07:15:11.262Z,97614.88
2023-03-08T07:17:40.977Z,97792.06
2023-03-08T07:20:11.158Z,97802.34
2023-03-08T07:22:42.273Z,97811.66
2023-03-08T07:25:13.332Z,97814.03
2023-03-08T07:27:41.649Z,97774.50
2023-03-08T07:30:13.314Z,97820.28
2023-03-08T07:32:45.141Z,97793.16
2023-03-08T07:35:16.260Z,97834.59
2023-03-08T07:37:48.219Z,97837.41
2023-03-08T07:40:17.965Z,97830.22
2023-03-08T07:42:46.607Z,97850.06
2023-03-08T07:45:31.118Z,97853.94
2023-03-08T07:47:59.348Z,97854.72
2023-03-08T07:50:27.448Z,97842.44
2023-03-08T07:52:55.586Z,97824.03
2023-03-08T07:55:26.087Z,97857.25
2023-03-08T07:57:54.479Z,97847.72
2023-03-08T08:00:23.005Z,97871.88
2023-03-08T08:02:54.119Z,97846.28
2023-03-08T08:05:23.072Z,97853.97
2023-03-08T08:07:51.803Z,97843.09
2023-03-08T08:10:20.727Z,97734.13
2023-03-08T08:12:49.062Z,97792.81
2023-03-08T08:15:18.038Z,97834.13
2023-03-08T08:17:46.343Z,97831.38
2023-03-08T08:20:14.997Z,97859.28
2023-03-08T08:22:43.467Z,97873.44
2023-03-08T08:25:11.696Z,97867.38
2023-03-08T08:27:41.405Z,97873.97
2023-03-08T08:30:13.247Z,97861.22
2023-03-08T08:32:41.925Z,97883.06
2023-03-08T08:35:10.462Z,97888.63
2023-03-08T08:37:38.679Z,97891.50
2023-03-08T08:40:10.875Z,97887.41
2023-03-08T08:42:39.385Z,97847.75
2023-03-08T08:45:08.841Z,97910.31
2023-03-08T08:47:37.220Z,97850.06
2023-03-08T08:50:08.384Z,97870.81
2023-03-08T08:52:36.731Z,97905.47
2023-03-08T08:55:05.571Z,97903.38
2023-03-08T08:57:35.329Z,97893.59
2023-03-08T09:00:08.348Z,97884.03
2023-03-08T09:02:37.119Z,97863.69
2023-03-08T09:05:05.922Z,97899.13
2023-03-08T09:07:39.283Z,97895.94
2023-03-08T09:10:09.673Z,97896.50
2023-03-08T09:12:38.261Z,97909.91
2023-03-08T09:15:07.718Z,97851.97
2023-03-08T09:17:36.276Z,97911.31
2023-03-08T09:20:06.899Z,97903.81
2023-03-08T09:22:35.999Z,97904.25
2023-03-08T09:25:06.881Z,97914.50
2023-03-08T09:27:38.356Z,97899.94
2023-03-08T09:30:10.510Z,97890.84
2023-03-08T09:32:39.152Z,97902.28
2023-03-08T09:35:09.289Z,97917.81
2023-03-08T09:37:39.318Z,97927.69
2023-03-08T09:40:17.756Z,97930.03
2023-03-08T09:42:46.474Z,97887.03
2023-03-08T09:45:26.789Z,97922.63
2023-03-08T09:48:07.266Z,97926.84
2023-03-08T09:50:47.559Z,97932.16
2023-03-08T09:53:39.281Z,97892.25
2023-03-08T09:56:29.610Z,97926.59
2023-03-08T09:59:08.570Z,97922.91
2023-03-08T10:02:13.426Z,97912.13
2023-03-08T10:05:12.431Z,97893.47
2023-03-08T10:07:59.641Z,97924.72
2023-03-08T10:10:53.496Z,97927.34
2023-03-08T10:13:35.293Z,97930.94
2023-03-08T10:16:26.350Z,97921.38
2023-03-08T10:19:02.205Z,97925.44
2023-03-08T10:21:34.089Z,97909.56
2023-03-08T10:24:14.821Z,97925.94
2023-03-08T10:26:44.967Z,97919.66
2023-03-08T10:29:14.795Z,97922.66
2023-03-08T10:31:47.468Z,97915.38
2023-03-08T10:34:22.867Z,97893.97
2023-03-08T10:37:08.094Z,97887.78
2023-03-08T10:39:38.652Z,97866.06
2023-03-08T10:42:17.881Z,97864.34
2023-03-08T10:45:13.225Z,97876.09
2023-03-08T10:47:41.779Z,97850.06
2023-03-08T10:50:27.535Z,97825.72
2023-03-08T10:52:56.765Z,97870.53
2023-03-08T10:55:30.049Z,97874.75
2023-03-08T10:58:01.384Z,97865.03
2023-03-08T11:00:44.794Z,97827.94
2023-03-08T11:03:22.168Z,97889.66
2023-03-08T11:06:07.712Z,97880.34
2023-03-08T11:08:51.988Z,97875.13
2023-03-08T11:11:20.329Z,97862.78
2023-03-08T11:13:51.993Z,97844.69
2023-03-08T11:16:40.647Z,97884.25
2023-03-08T11:19:29.720Z,97879.75
2023-03-08T11:22:14.035Z,97818.91
2023-03-08T11:25:11.302Z,97829.41
2023-03-08T11:27:57.842Z,97815.34
2023-03-08T11:31:02.286Z,97866.66
2023-03-08T11:33:56.581Z,97851.25
2023-03-08T11:37:05.896Z,97854.41
2023-03-08T11:39:46.957Z,97848.31
2023-03-08T11:42:48.860Z,97849.94
2023-03-08T11:45:34.233Z,97843.78
2023-03-08T11:48:43.659Z,97855.38
2023-03-08T11:51:33.061Z,97841.78
2023-03-08T11:54:39.421Z,97845.22
2023-03-08T11:57:13.774Z,97827.00
2023-03-08T12:00:05.639Z,97792.66
2023-03-08T12:02:48.358Z,97789.00
2023-03-08T12:05:40.498Z,97815.31
2023-03-08T12:08:27.686Z,97840.69
2023-03-08T12:11:16.456Z,97822.03
2023-03-08T12:13:58.194Z,97828.56
2023-03-08T12:16:48.783Z,97835.91
2023-03-08T12:19:44.298Z,97791.97
2023-03-08T12:22:44.654Z,97824.69
2023-03-08T12:25:19.002Z,97818.69
2023-03-08T12:28:00.059Z,97829.19
2023-03-08T12:31:02.009Z,97832.63
2023-03-08T12:33:32.555Z,97824.66
2023-03-08T12:36:05.423Z,97840.16
2023-03-08T12:38:46.025Z,97839.63
2023-03-08T12:41:27.730Z,97844.19
2023-03-08T12:44:05.223Z,97835.28
2023-03-08T12:47:02.248Z,97845.59
2023-03-08T12:49:39.883Z,97831.22
2023-03-08T12:52:20.273Z,97842.00
2023-03-08T12:55:06.963Z,97849.03
2023-03-08T12:57:47.311Z,97809.75
2023-03-08T13:00:25.556Z,97844.88
2023-03-08T13:03:44.281Z,97850.00
2023-03-08T13:06:25.966Z,97859.06
2023-03-08T13:09:08.176Z,97854.41
2023-03-08T13:11:46.333Z,97839.78
2023-03-08T13:14:59.500Z,97846.94
2023-03-08T13:17:58.272Z,97842.63
2023-03-08T13:20:52.979Z,97826.31
2023-03-08T13:23:54.350Z,97823.75
2023-03-08T13:27:10.930Z,97814.16
2023-03-08T13:29:42.151Z,97753.34
2023-03-08T13:32:21.764Z,97819.59
2023-03-08T13:35:05.157Z,97820.75
2023-03-08T13:37:33.978Z,97815.59
2023-03-08T13:40:05.367Z,97778.44
2023-03-08T13:42:33.804Z,97830.66
2023-03-08T13:45:17.543Z,97783.56
2023-03-08T13:47:47.471Z,97839.69
2023-03-08T13:50:45.371Z,97838.94
2023-03-08T13:53:36.950Z,97824.13
2023-03-08T13:56:07.417Z,97784.41
2023-03-08T13:58:50.767Z,97764.66
2023-03-08T14:01:23.602Z,97807.22
2023-03-08T14:03:55.279Z,97822.44
2023-03-08T14:06:30.139Z,97788.00
2023-03-08T14:09:04.058Z,97838.19
2023-03-08T14:11:38.323Z,97784.31
2023-03-08T14:14:19.422Z,97822.69
2023-03-08T14:16:51.904Z,97813.78
2023-03-08T14:19:34.090Z,97791.34
2023-03-08T14:22:37.797Z,97789.50
2023-03-08T14:25:22.744Z,97809.97
2023-03-08T14:27:51.480Z,97808.63
2023-03-08T14:30:29.387Z,97807.19
2023-03-08T14:33:26.416Z,97749.41
2023-03-08T14:36:01.737Z,97788.59
2023-03-08T14:38:34.497Z,97788.94
2023-03-08T14:41:10.399Z,97798.13
2023-03-08T14:43:39.846Z,97782.09
2023-03-08T14:46:09.708Z,97735.41
2023-03-08T14:48:38.904Z,97788.25
2023-03-08T14:51:36.630Z,97728.53
2023-03-08T14:54:20.028Z,97737.00
2023-03-08T14:56:50.173Z,97756.13
2023-03-08T14:59:27.414Z,97772.75
2023-03-08T15:01:56.647Z,97780.28
2023-03-08T15:04:25.971Z,97722.97
2023-03-08T15:06:55.768Z,97736.31
2023-03-08T15:09:26.418Z,97767.97
2023-03-08T15:12:00.009Z,97758.00
2023-03-08T15:14:30.744Z,97736.41
2023-03-08T15:16:59.188Z,97758.00
2023-03-08T15:19:27.669Z,97759.53
2023-03-08T15:21:56.000Z,97738.16
2023-03-08T15:24:24.381Z,97727.03
2023-03-08T15:26:52.975Z,97744.31
2023-03-08T15:29:28.294Z,97757.13
2023-03-08T15:31:58.134Z,97743.63
2023-03-08T15:34:28.405Z,97696.53
2023-03-08T15:36:57.982Z,97640.44
2023-03-08T15:39:26.217Z,97695.88
2023-03-08T15:41:54.840Z,97728.97
2023-03-08T15:44:23.190Z,97686.09
2023-03-08T15:46:52.874Z,97738.25
2023-03-08T15:49:21.215Z,97730.72
2023-03-08T15:51:50.188Z,97726.19
2023-03-08T15:54:18.541Z,97709.81
2023-03-08T15:56:47.435Z,97711.75
2023-03-08T15:59:15.752Z,97720.63
2023-03-08T16:01:44.475Z,97683.00
2023-03-08T16:04:12.902Z,97647.91
2023-03-08T16:06:43.996Z,97719.66
2023-03-08T16:09:12.369Z,97711.69
2023-03-08T16:11:41.158Z,97656.16
2023-03-08T16:14:09.891Z,97672.31
2023-03-08T16:16:45.343Z,97692.66
2023-03-08T16:19:14.441Z,97681.09
2023-03-08T16:21:42.793Z,97550.13
2023-03-08T16:24:12.128Z,97699.63
2023-03-08T16:26:40.723Z,97667.66
2023-03-08T16:29:09.697Z,97694.19
2023-03-08T16:31:38.654Z,97702.34
2023-03-08T16:34:08.610Z,97714.53
2023-03-08T16:36:38.008Z,97693.09
2023-03-08T16:39:17.745Z,97709.28
2023-03-08T16:41:46.832Z,97665.25
2023-03-08T16:44:31.050Z,97666.78
2023-03-08T16:46:59.839Z,97706.38
2023-03-08T16:49:28.788Z,97692.16
2023-03-08T16:51:58.159Z,97700.81
2023-03-08T16:54:27.312Z,97700.28
2023-03-08T16:56:56.446Z,97711.22
2023-03-08T16:59:25.444Z,97702.66
2023-03-08T17:01:54.848Z,97695.47
2023-03-08T17:04:23.594Z,97691.69
2023-03-08T17:06:52.141Z,97686.59
2023-03-08T17:09:22.520Z,97688.91
2023-03-08T17:11:51.758Z,97691.13
2023-03-08T17:14:20.571Z,97689.38
2023-03-08T17:16:49.305Z,97710.53
2023-03-08T17:19:18.854Z,97702.81
2023-03-08T17:21:50.760Z,97696.78
2023-03-08T17:24:19.978Z,97697.19
2023-03-08T17:26:53.496Z,97682.28
2023-03-08T17:29:22.854Z,97666.31
2023-03-08T17:31:52.280Z,97688.50
2023-03-08T17:34:24.017Z,97691.19
2023-03-08T17:36:53.823Z,97706.47
2023-03-08T17:39:22.638Z,97695.84
2023-03-08T17:41:51.023Z,97686.59
2023-03-08T17:44:19.261Z,97710.31
2023-03-08T17:46:47.670Z,97702.72
2023-03-08T17:49:23.770Z,97711.00
2023-03-08T17:51:52.934Z,97716.97
2023-03-08T17:54:21.647Z,97658.56
2023-03-08T17:56:50.308Z,97692.38
2023-03-08T17:59:19.007Z,97718.72
2023-03-08T18:01:47.135Z,97715.41
2023-03-08T18:04:15.682Z,97722.59
2023-03-08T18:06:44.592Z,97716.81
2023-03-08T18:09:17.119Z,97721.91
2023-03-08T18:11:46.016Z,97719.00
2023-03-08T18:14:15.642Z,97681.06
2023-03-08T18:16:45.334Z,97727.88
2023-03-08T18:19:14.184Z,97721.22
2023-03-08T18:21:42.951Z,97726.22
2023-03-08T18:24:12.943Z,97687.00
2023-03-08T18:26:41.345Z,97720.66
2023-03-08T18:29:10.002Z,97677.66
2023-03-08T18:31:39.375Z,97720.53
2023-03-08T18:34:11.717Z,97723.06
2023-03-08T18:36:41.296Z,97680.84
2023-03-08T18:39:13.772Z,97719.91
2023-03-08T18:41:44.007Z,97674.34
2023-03-08T18:44:13.684Z,97701.84
2023-03-08T18:46:42.615Z,97664.28
2023-03-08T18:49:14.992Z,97641.78
2023-03-08T18:51:44.559Z,97687.56
2023-03-08T18:54:17.808Z,97687.72
2023-03-08T18:56:49.986Z,97678.31
2023-03-08T18:59:21.829Z,97674.34
2023-03-08T19:01:50.625Z,97671.72
2023-03-08T19:04:19.382Z,97623.00
2023-03-08T19:06:47.959Z,97674.19
2023-03-08T19:09:18.456Z,97680.41
2023-03-08T19:11:48.340Z,97683.72
2023-03-08T19:14:17.423Z,97649.91
2023-03-08T19:16:46.079Z,97685.53
2023-03-08T19:19:16.738Z,97689.50
2023-03-08T19:21:48.983Z,97649.47
2023-03-08T19:24:20.846Z,97645.75
2023-03-08T19:26:53.039Z,97636.50
2023-03-08T19:29:30.673Z,97641.59
2023-03-08T19:32:09.168Z,97652.50
2023-03-08T19:34:45.218Z,97652.88
2023-03-08T19:37:15.527Z,97645.28
2023-03-08T19:39:44.389Z,97644.75
2023-03-08T19:42:16.926Z,97651.25
2023-03-08T19:44:48.796Z,97634.69
2023-03-08T19:47:20.355Z,97619.41
2023-03-08T19:49:49.777Z,97644.78
2023-03-08T19:52:18.767Z,97633.72
2023-03-08T19:54:47.653Z,97623.50
2023-03-08T19:57:16.640Z,97622.41
2023-03-08T19:59:45.511Z,97583.50
2023-03-08T20:02:15.304Z,97618.81
2023-03-08T20:04:45.575Z,97601.00
2023-03-08T20:07:14.761Z,97599.19
2023-03-08T20:09:44.742Z,97553.28
2023-03-08T20:12:14.176Z,97590.22
2023-03-08T20:14:43.463Z,97570.75
2023-03-08T20:17:12.420Z,97575.69
2023-03-08T20:19:41.512Z,97583.44
2023-03-08T20:22:11.077Z,97562.19
2023-03-08T20:24:39.886Z,97518.91
2023-03-08T20:27:09.247Z,97553.47
2023-03-08T20:29:38.405Z,97538.69
2023-03-08T20:32:07.846Z,97534.84
2023-03-08T20:34:37.181Z,97497.78
2023-03-08T20:37:09.012Z,97536.53
2023-03-08T20:39:38.916Z,97525.19
2023-03-08T20:42:11.415Z,97522.94
2023-03-08T20:44:41.374Z,97508.03
2023-03-08T20:47:10.311Z,97490.38
2023-03-08T20:49:39.905Z,97494.38
2023-03-08T20:52:11.987Z,97495.84
2023-03-08T20:54:43.700Z,97480.72
2023-03-08T20:57:12.691Z,97445.81
2023-03-08T20:59:41.904Z,97465.63
2023-03-08T21:02:13.413Z,97456.78
2023-03-08T21:04:42.503Z,97418.34
2023-03-08T21:07:11.109Z,97469.88
2023-03-08T21:09:39.450Z,97451.34
2023-03-08T21:12:09.035Z,97432.03
2023-03-08T21:14:37.867Z,97430.91
2023-03-08T21:17:06.878Z,97434.91
2023-03-08T21:19:35.519Z,97427.03
2023-03-08T21:22:05.529Z,97424.81
2023-03-08T21:24:34.106Z,97427.84
2023-03-08T21:27:02.678Z,97416.53
2023-03-08T21:29:31.532Z,97406.31
2023-03-08T21:32:01.034Z,97398.28
2023-03-08T21:34:30.113Z,97405.72
2023-03-08T21:36:59.100Z,97377.72
2023-03-08T21:39:27.963Z,97361.88
2023-03-08T21:41:58.769Z,97385.06
2023-03-08T21:44:28.417Z,97380.81
2023-03-08T21:46:58.207Z,97343.50
2023-03-08T21:49:30.097Z,97378.56
2023-03-08T21:51:59.832Z,97375.47
2023-03-08T21:54:31.736Z,97365.97
2023-03-08T21:57:00.480Z,97355.88
2023-03-08T21:59:29.530Z,97361.91
2023-03-08T22:01:59.310Z,97256.28
2023-03-08T22:04:29.314Z,97355.50
2023-03-08T22:06:58.603Z,97350.78
2023-03-08T22:09:29.445Z,97298.22
2023-03-08T22:11:58.627Z,97321.84
2023-03-08T22:14:28.926Z,97333.53
2023-03-08T22:16:57.808Z,97283.19
2023-03-08T22:19:26.701Z,97281.03
2023-03-08T22:21:55.370Z,97319.63
2023-03-08T22:24:24.206Z,97296.53
2023-03-08T22:26:52.589Z,97268.84
2023-03-08T22:29:21.063Z,97294.72
2023-03-08T22:31:49.907Z,97314.69
2023-03-08T22:34:18.244Z,97263.59
2023-03-08T22:36:46.501Z,97274.88
2023-03-08T22:39:15.613Z,97295.53
2023-03-08T22:41:44.717Z,97294.88
2023-03-08T22:44:15.674Z,97267.34
2023-03-08T22:46:46.617Z,97257.75
2023-03-08T22:49:17.195Z,97294.25
2023-03-08T22:51:47.409Z,97288.47
2023-03-08T22:54:19.917Z,97298.66
2023-03-08T22:56:50.242Z,97271.66
2023-03-08T22:59:19.028Z,97253.22
2023-03-08T23:01:47.341Z,97271.91
2023-03-08T23:04:16.861Z,97240.22
2023-03-08T23:06:45.796Z,97220.13
2023-03-08T23:09:15.122Z,97237.88
2023-03-08T23:11:45.407Z,97278.13
2023-03-08T23:14:14.322Z,97258.16
2023-03-08T23:16:46.176Z,97262.81
2023-03-08T23:19:19.569Z,97238.91
2023-03-08T23:21:48.288Z,97238.91
2023-03-08T23:24:17.188Z,97272.78
2023-03-08T23:26:46.385Z,97280.66
2023-03-08T23:29:16.158Z,97271.47
2023-03-08T23:31:46.942Z,97266.06
2023-03-08T23:34:15.205Z,97261.84
2023-03-08T23:36:43.293Z,97254.78
2023-03-08T23:39:11.678Z,97253.78
2023-03-08T23:41:43.319Z,97260.72
2023-03-08T23:44:12.681Z,97119.66
2023-03-08T23:46:40.973Z,97235.03
2023-03-08T23:49:10.492Z,97216.72
2023-03-08T23:51:38.949Z,97200.28
2023-03-08T23:54:07.658Z,97248.25
2023-03-08T23:56:38.617Z,97233.28
2023-03-08T23:59:23.211Z,97160.28
